sensor_id;sensor_type;location;lat;lon;timestamp;temperature;humidity
27016;DHT22;14557;0.000;0.000;2022-07-10T00:02:13;24.10;50.70
27016;DHT22;14557;0.000;0.000;2022-07-10T00:04:39;24.10;50.70
27016;DHT22;14557;0.000;0.000;2022-07-10T00:07:05;24.10;50.70
27016;DHT22;14557;0.000;0.000;2022-07-10T00:09:31;24.10;50.70
27016;DHT22;14557;0.000;0.000;2022-07-10T00:11:57;24.10;50.70
27016;DHT22;14557;0.000;0.000;2022-07-10T00:14:23;24.10;50.70
27016;DHT22;14557;0.000;0.000;2022-07-10T00:16:49;24.10;50.70
27016;DHT22;14557;0.000;0.000;2022-07-10T00:19:14;24.10;50.60
27016;DHT22;14557;0.000;0.000;2022-07-10T00:21:40;24.10;50.60
27016;DHT22;14557;0.000;0.000;2022-07-10T00:24:06;24.10;50.70
27016;DHT22;14557;0.000;0.000;2022-07-10T00:26:32;24.10;50.70
27016;DHT22;14557;0.000;0.000;2022-07-10T00:28:58;24.10;50.70
27016;DHT22;14557;0.000;0.000;2022-07-10T00:31:24;24.00;50.70
27016;DHT22;14557;0.000;0.000;2022-07-10T00:33:50;24.00;50.70
27016;DHT22;14557;0.000;0.000;2022-07-10T00:36:16;24.00;50.80
27016;DHT22;14557;0.000;0.000;2022-07-10T00:38:42;24.00;50.90
27016;DHT22;14557;0.000;0.000;2022-07-10T00:41:08;24.00;50.90
27016;DHT22;14557;0.000;0.000;2022-07-10T00:46:19;24.00;51.00
27016;DHT22;14557;0.000;0.000;2022-07-10T00:48:48;24.00;51.00
27016;DHT22;14557;0.000;0.000;2022-07-10T00:51:15;24.00;51.00
27016;DHT22;14557;0.000;0.000;2022-07-10T00:53:44;24.00;51.10
27016;DHT22;14557;0.000;0.000;2022-07-10T00:56:10;24.00;51.10
27016;DHT22;14557;0.000;0.000;2022-07-10T00:58:37;24.00;51.10
27016;DHT22;14557;0.000;0.000;2022-07-10T01:01:05;24.00;51.00
27016;DHT22;14557;0.000;0.000;2022-07-10T01:03:30;24.00;51.10
27016;DHT22;14557;0.000;0.000;2022-07-10T01:05:57;24.00;51.10
27016;DHT22;14557;0.000;0.000;2022-07-10T01:08:24;24.00;51.10
27016;DHT22;14557;0.000;0.000;2022-07-10T01:10:50;24.00;51.20
27016;DHT22;14557;0.000;0.000;2022-07-10T01:13:16;24.00;51.10
27016;DHT22;14557;0.000;0.000;2022-07-10T01:15:42;23.90;51.10
27016;DHT22;14557;0.000;0.000;2022-07-10T01:18:08;23.90;51.20
27016;DHT22;14557;0.000;0.000;2022-07-10T01:20:34;23.90;51.20
27016;DHT22;14557;0.000;0.000;2022-07-10T01:23:00;23.90;51.30
27016;DHT22;14557;0.000;0.000;2022-07-10T01:25:26;23.90;51.30
27016;DHT22;14557;0.000;0.000;2022-07-10T01:27:52;23.90;51.30
27016;DHT22;14557;0.000;0.000;2022-07-10T01:30:18;23.90;51.40
27016;DHT22;14557;0.000;0.000;2022-07-10T01:32:45;23.90;51.40
27016;DHT22;14557;0.000;0.000;2022-07-10T01:35:11;23.90;51.40
27016;DHT22;14557;0.000;0.000;2022-07-10T01:37:38;23.90;51.50
27016;DHT22;14557;0.000;0.000;2022-07-10T01:40:04;23.90;51.60
27016;DHT22;14557;0.000;0.000;2022-07-10T01:42:30;23.90;51.50
27016;DHT22;14557;0.000;0.000;2022-07-10T01:44:56;23.90;51.60
27016;DHT22;14557;0.000;0.000;2022-07-10T01:47:22;23.90;51.60
27016;DHT22;14557;0.000;0.000;2022-07-10T01:49:53;23.90;51.70
27016;DHT22;14557;0.000;0.000;2022-07-10T01:52:22;23.90;51.70
27016;DHT22;14557;0.000;0.000;2022-07-10T01:54:48;23.90;51.70
27016;DHT22;14557;0.000;0.000;2022-07-10T01:57:14;23.90;51.70
27016;DHT22;14557;0.000;0.000;2022-07-10T01:59:40;23.90;51.70
27016;DHT22;14557;0.000;0.000;2022-07-10T02:02:07;23.90;51.80
27016;DHT22;14557;0.000;0.000;2022-07-10T02:04:33;23.80;51.70
27016;DHT22;14557;0.000;0.000;2022-07-10T02:07:12;23.80;51.70
27016;DHT22;14557;0.000;0.000;2022-07-10T02:09:38;23.80;51.70
27016;DHT22;14557;0.000;0.000;2022-07-10T02:12:08;23.80;51.70
27016;DHT22;14557;0.000;0.000;2022-07-10T02:14:34;23.80;51.70
27016;DHT22;14557;0.000;0.000;2022-07-10T02:17:00;23.80;51.80
27016;DHT22;14557;0.000;0.000;2022-07-10T02:19:26;23.70;51.80
27016;DHT22;14557;0.000;0.000;2022-07-10T02:21:52;23.70;51.80
27016;DHT22;14557;0.000;0.000;2022-07-10T02:24:18;23.70;51.90
27016;DHT22;14557;0.000;0.000;2022-07-10T02:26:44;23.70;52.00
27016;DHT22;14557;0.000;0.000;2022-07-10T02:29:10;23.70;52.10
27016;DHT22;14557;0.000;0.000;2022-07-10T02:31:36;23.70;52.10
27016;DHT22;14557;0.000;0.000;2022-07-10T02:34:14;23.70;52.10
27016;DHT22;14557;0.000;0.000;2022-07-10T02:36:40;23.70;52.10
27016;DHT22;14557;0.000;0.000;2022-07-10T02:39:07;23.70;52.10
27016;DHT22;14557;0.000;0.000;2022-07-10T02:41:34;23.70;52.20
27016;DHT22;14557;0.000;0.000;2022-07-10T02:44:01;23.70;52.20
27016;DHT22;14557;0.000;0.000;2022-07-10T02:46:27;23.70;52.30
27016;DHT22;14557;0.000;0.000;2022-07-10T02:48:53;23.70;52.30
27016;DHT22;14557;0.000;0.000;2022-07-10T02:51:19;23.70;52.30
27016;DHT22;14557;0.000;0.000;2022-07-10T02:53:44;23.70;52.30
27016;DHT22;14557;0.000;0.000;2022-07-10T02:56:10;23.70;52.30
27016;DHT22;14557;0.000;0.000;2022-07-10T02:58:38;23.70;52.30
27016;DHT22;14557;0.000;0.000;2022-07-10T03:01:04;23.60;52.30
27016;DHT22;14557;0.000;0.000;2022-07-10T03:03:30;23.60;52.30
27016;DHT22;14557;0.000;0.000;2022-07-10T03:05:56;23.70;52.40
27016;DHT22;14557;0.000;0.000;2022-07-10T03:08:22;23.60;52.40
27016;DHT22;14557;0.000;0.000;2022-07-10T03:10:47;23.60;52.40
27016;DHT22;14557;0.000;0.000;2022-07-10T03:13:13;23.60;52.40
27016;DHT22;14557;0.000;0.000;2022-07-10T03:15:39;23.60;52.40
27016;DHT22;14557;0.000;0.000;2022-07-10T03:18:05;23.60;52.40
27016;DHT22;14557;0.000;0.000;2022-07-10T03:20:31;23.60;52.40
27016;DHT22;14557;0.000;0.000;2022-07-10T03:22:56;23.60;52.40
27016;DHT22;14557;0.000;0.000;2022-07-10T03:25:22;23.60;52.40
27016;DHT22;14557;0.000;0.000;2022-07-10T03:27:48;23.60;52.40
27016;DHT22;14557;0.000;0.000;2022-07-10T03:30:14;23.60;52.40
27016;DHT22;14557;0.000;0.000;2022-07-10T03:32:39;23.60;52.50
27016;DHT22;14557;0.000;0.000;2022-07-10T03:35:05;23.60;52.50
27016;DHT22;14557;0.000;0.000;2022-07-10T03:37:31;23.50;52.50
27016;DHT22;14557;0.000;0.000;2022-07-10T03:39:57;23.50;52.50
27016;DHT22;14557;0.000;0.000;2022-07-10T03:42:23;23.50;52.70
27016;DHT22;14557;0.000;0.000;2022-07-10T03:44:48;23.50;52.70
27016;DHT22;14557;0.000;0.000;2022-07-10T03:47:14;23.50;52.70
27016;DHT22;14557;0.000;0.000;2022-07-10T03:49:40;23.50;52.70
27016;DHT22;14557;0.000;0.000;2022-07-10T03:52:07;23.50;52.80
27016;DHT22;14557;0.000;0.000;2022-07-10T03:54:33;23.50;52.80
27016;DHT22;14557;0.000;0.000;2022-07-10T03:56:59;23.50;52.80
27016;DHT22;14557;0.000;0.000;2022-07-10T03:59:43;23.50;52.80
27016;DHT22;14557;0.000;0.000;2022-07-10T04:02:09;23.50;52.90
27016;DHT22;14557;0.000;0.000;2022-07-10T04:04:35;23.50;52.90
27016;DHT22;14557;0.000;0.000;2022-07-10T04:07:01;23.50;52.90
27016;DHT22;14557;0.000;0.000;2022-07-10T04:09:27;23.50;52.90
27016;DHT22;14557;0.000;0.000;2022-07-10T04:11:52;23.50;53.00
27016;DHT22;14557;0.000;0.000;2022-07-10T04:14:18;23.50;53.00
27016;DHT22;14557;0.000;0.000;2022-07-10T04:16:44;23.50;53.00
27016;DHT22;14557;0.000;0.000;2022-07-10T04:19:10;23.40;53.00
27016;DHT22;14557;0.000;0.000;2022-07-10T04:21:36;23.50;53.10
27016;DHT22;14557;0.000;0.000;2022-07-10T04:24:03;23.40;53.10
27016;DHT22;14557;0.000;0.000;2022-07-10T04:26:29;23.50;53.20
27016;DHT22;14557;0.000;0.000;2022-07-10T04:28:54;23.40;53.20
27016;DHT22;14557;0.000;0.000;2022-07-10T04:31:20;23.40;53.20
27016;DHT22;14557;0.000;0.000;2022-07-10T04:33:46;23.40;53.20
27016;DHT22;14557;0.000;0.000;2022-07-10T04:36:12;23.40;53.20
27016;DHT22;14557;0.000;0.000;2022-07-10T04:38:38;23.40;53.30
27016;DHT22;14557;0.000;0.000;2022-07-10T04:41:03;23.40;53.40
27016;DHT22;14557;0.000;0.000;2022-07-10T04:43:30;23.30;53.40
27016;DHT22;14557;0.000;0.000;2022-07-10T04:45:56;23.40;53.40
27016;DHT22;14557;0.000;0.000;2022-07-10T04:48:22;23.40;53.40
27016;DHT22;14557;0.000;0.000;2022-07-10T04:50:47;23.40;53.50
27016;DHT22;14557;0.000;0.000;2022-07-10T04:53:13;23.30;53.50
27016;DHT22;14557;0.000;0.000;2022-07-10T04:55:39;23.30;53.60
27016;DHT22;14557;0.000;0.000;2022-07-10T04:58:05;23.30;53.60
27016;DHT22;14557;0.000;0.000;2022-07-10T05:00:30;23.30;53.70
27016;DHT22;14557;0.000;0.000;2022-07-10T05:02:56;23.30;53.70
27016;DHT22;14557;0.000;0.000;2022-07-10T05:05:22;23.30;53.70
27016;DHT22;14557;0.000;0.000;2022-07-10T05:07:48;23.30;53.60
27016;DHT22;14557;0.000;0.000;2022-07-10T05:10:13;23.30;53.70
27016;DHT22;14557;0.000;0.000;2022-07-10T05:12:39;23.20;53.60
27016;DHT22;14557;0.000;0.000;2022-07-10T05:15:05;23.30;53.70
27016;DHT22;14557;0.000;0.000;2022-07-10T05:17:31;23.30;53.70
27016;DHT22;14557;0.000;0.000;2022-07-10T05:19:57;23.20;53.70
27016;DHT22;14557;0.000;0.000;2022-07-10T05:22:24;23.30;53.70
27016;DHT22;14557;0.000;0.000;2022-07-10T05:24:51;23.20;53.80
27016;DHT22;14557;0.000;0.000;2022-07-10T05:27:17;23.30;53.80
27016;DHT22;14557;0.000;0.000;2022-07-10T05:29:45;23.20;53.80
27016;DHT22;14557;0.000;0.000;2022-07-10T05:32:11;23.20;53.70
27016;DHT22;14557;0.000;0.000;2022-07-10T05:34:37;23.30;53.80
27016;DHT22;14557;0.000;0.000;2022-07-10T05:37:03;23.20;53.80
27016;DHT22;14557;0.000;0.000;2022-07-10T05:39:29;23.20;53.80
27016;DHT22;14557;0.000;0.000;2022-07-10T05:41:55;23.20;53.90
27016;DHT22;14557;0.000;0.000;2022-07-10T05:44:23;23.20;53.90
27016;DHT22;14557;0.000;0.000;2022-07-10T05:46:49;23.20;53.90
27016;DHT22;14557;0.000;0.000;2022-07-10T05:49:15;23.20;53.90
27016;DHT22;14557;0.000;0.000;2022-07-10T05:51:41;23.20;54.00
27016;DHT22;14557;0.000;0.000;2022-07-10T05:54:07;23.20;54.00
27016;DHT22;14557;0.000;0.000;2022-07-10T05:56:34;23.20;54.10
27016;DHT22;14557;0.000;0.000;2022-07-10T05:59:00;23.20;54.20
27016;DHT22;14557;0.000;0.000;2022-07-10T06:01:25;23.20;54.20
27016;DHT22;14557;0.000;0.000;2022-07-10T06:03:52;23.20;54.20
27016;DHT22;14557;0.000;0.000;2022-07-10T06:06:17;23.10;54.20
27016;DHT22;14557;0.000;0.000;2022-07-10T06:08:44;23.10;54.20
27016;DHT22;14557;0.000;0.000;2022-07-10T06:11:11;23.20;54.30
27016;DHT22;14557;0.000;0.000;2022-07-10T06:13:37;23.10;54.30
27016;DHT22;14557;0.000;0.000;2022-07-10T06:16:03;23.10;54.30
27016;DHT22;14557;0.000;0.000;2022-07-10T06:18:30;23.10;54.20
27016;DHT22;14557;0.000;0.000;2022-07-10T06:20:56;23.10;54.20
27016;DHT22;14557;0.000;0.000;2022-07-10T06:23:22;23.20;54.20
27016;DHT22;14557;0.000;0.000;2022-07-10T06:25:48;23.10;54.20
27016;DHT22;14557;0.000;0.000;2022-07-10T06:28:17;23.20;54.20
27016;DHT22;14557;0.000;0.000;2022-07-10T06:30:43;23.10;54.20
27016;DHT22;14557;0.000;0.000;2022-07-10T06:33:09;23.10;54.30
27016;DHT22;14557;0.000;0.000;2022-07-10T06:35:35;23.10;54.20
27016;DHT22;14557;0.000;0.000;2022-07-10T06:38:01;23.10;54.30
27016;DHT22;14557;0.000;0.000;2022-07-10T06:40:28;23.10;54.30
27016;DHT22;14557;0.000;0.000;2022-07-10T06:42:54;23.10;54.20
27016;DHT22;14557;0.000;0.000;2022-07-10T06:45:20;23.10;54.30
27016;DHT22;14557;0.000;0.000;2022-07-10T06:47:46;23.10;54.30
27016;DHT22;14557;0.000;0.000;2022-07-10T06:50:29;23.10;54.20
27016;DHT22;14557;0.000;0.000;2022-07-10T06:52:56;23.10;54.20
27016;DHT22;14557;0.000;0.000;2022-07-10T06:55:22;23.10;54.20
27016;DHT22;14557;0.000;0.000;2022-07-10T06:57:48;23.10;54.10
27016;DHT22;14557;0.000;0.000;2022-07-10T07:00:14;23.10;54.30
27016;DHT22;14557;0.000;0.000;2022-07-10T07:02:41;23.10;54.30
27016;DHT22;14557;0.000;0.000;2022-07-10T07:05:07;23.10;54.30
27016;DHT22;14557;0.000;0.000;2022-07-10T07:07:34;23.10;54.40
27016;DHT22;14557;0.000;0.000;2022-07-10T07:10:00;23.10;54.40
27016;DHT22;14557;0.000;0.000;2022-07-10T07:12:26;23.00;54.40
27016;DHT22;14557;0.000;0.000;2022-07-10T07:14:51;23.10;54.40
27016;DHT22;14557;0.000;0.000;2022-07-10T07:17:17;23.10;54.40
27016;DHT22;14557;0.000;0.000;2022-07-10T07:19:59;23.10;54.40
27016;DHT22;14557;0.000;0.000;2022-07-10T07:22:44;23.10;54.40
27016;DHT22;14557;0.000;0.000;2022-07-10T07:25:29;23.10;54.40
27016;DHT22;14557;0.000;0.000;2022-07-10T07:27:54;23.00;54.40
27016;DHT22;14557;0.000;0.000;2022-07-10T07:30:20;23.10;54.40
27016;DHT22;14557;0.000;0.000;2022-07-10T07:32:46;23.10;54.40
27016;DHT22;14557;0.000;0.000;2022-07-10T07:35:14;23.10;54.40
27016;DHT22;14557;0.000;0.000;2022-07-10T07:37:48;23.10;54.30
27016;DHT22;14557;0.000;0.000;2022-07-10T07:40:17;23.10;54.30
27016;DHT22;14557;0.000;0.000;2022-07-10T07:42:45;23.10;54.30
27016;DHT22;14557;0.000;0.000;2022-07-10T07:45:11;23.10;54.20
27016;DHT22;14557;0.000;0.000;2022-07-10T07:47:57;23.10;54.20
27016;DHT22;14557;0.000;0.000;2022-07-10T07:50:29;23.10;54.10
27016;DHT22;14557;0.000;0.000;2022-07-10T07:52:57;23.20;54.10
27016;DHT22;14557;0.000;0.000;2022-07-10T07:55:24;23.20;54.00
27016;DHT22;14557;0.000;0.000;2022-07-10T07:57:55;23.20;54.00
27016;DHT22;14557;0.000;0.000;2022-07-10T08:00:22;23.20;53.90
27016;DHT22;14557;0.000;0.000;2022-07-10T08:02:49;23.20;54.00
27016;DHT22;14557;0.000;0.000;2022-07-10T08:05:16;23.20;53.90
27016;DHT22;14557;0.000;0.000;2022-07-10T08:07:49;23.20;53.90
27016;DHT22;14557;0.000;0.000;2022-07-10T08:10:18;23.20;53.90
27016;DHT22;14557;0.000;0.000;2022-07-10T08:12:45;23.20;53.90
27016;DHT22;14557;0.000;0.000;2022-07-10T08:15:12;23.20;53.90
27016;DHT22;14557;0.000;0.000;2022-07-10T08:17:38;23.20;53.90
27016;DHT22;14557;0.000;0.000;2022-07-10T08:20:07;23.20;53.90
27016;DHT22;14557;0.000;0.000;2022-07-10T08:22:33;23.20;54.00
27016;DHT22;14557;0.000;0.000;2022-07-10T08:24:59;23.30;54.00
27016;DHT22;14557;0.000;0.000;2022-07-10T08:27:25;23.20;53.90
27016;DHT22;14557;0.000;0.000;2022-07-10T08:29:51;23.30;54.00
27016;DHT22;14557;0.000;0.000;2022-07-10T08:32:17;23.20;54.00
27016;DHT22;14557;0.000;0.000;2022-07-10T08:34:43;23.30;54.00
27016;DHT22;14557;0.000;0.000;2022-07-10T08:37:09;23.30;54.00
27016;DHT22;14557;0.000;0.000;2022-07-10T08:39:35;23.30;54.00
27016;DHT22;14557;0.000;0.000;2022-07-10T08:42:01;23.30;53.90
27016;DHT22;14557;0.000;0.000;2022-07-10T08:44:30;23.30;54.50
27016;DHT22;14557;0.000;0.000;2022-07-10T08:46:56;23.40;53.90
27016;DHT22;14557;0.000;0.000;2022-07-10T08:49:29;23.40;53.80
27016;DHT22;14557;0.000;0.000;2022-07-10T08:54:22;23.50;53.80
27016;DHT22;14557;0.000;0.000;2022-07-10T08:56:50;23.40;53.80
27016;DHT22;14557;0.000;0.000;2022-07-10T08:59:17;23.50;53.80
27016;DHT22;14557;0.000;0.000;2022-07-10T09:01:43;23.50;53.80
27016;DHT22;14557;0.000;0.000;2022-07-10T09:04:22;23.50;53.80
27016;DHT22;14557;0.000;0.000;2022-07-10T09:06:49;23.50;53.70
27016;DHT22;14557;0.000;0.000;2022-07-10T09:09:15;23.50;53.70
27016;DHT22;14557;0.000;0.000;2022-07-10T09:11:41;23.50;53.70
27016;DHT22;14557;0.000;0.000;2022-07-10T09:14:16;23.60;53.70
27016;DHT22;14557;0.000;0.000;2022-07-10T09:16:50;23.60;53.70
27016;DHT22;14557;0.000;0.000;2022-07-10T09:19:24;23.60;53.60
27016;DHT22;14557;0.000;0.000;2022-07-10T09:22:02;23.60;53.60
27016;DHT22;14557;0.000;0.000;2022-07-10T09:24:38;23.70;53.70
27016;DHT22;14557;0.000;0.000;2022-07-10T09:27:05;23.70;53.60
27016;DHT22;14557;0.000;0.000;2022-07-10T09:29:31;23.70;53.60
27016;DHT22;14557;0.000;0.000;2022-07-10T09:32:02;23.70;53.50
27016;DHT22;14557;0.000;0.000;2022-07-10T09:34:48;23.70;53.50
27016;DHT22;14557;0.000;0.000;2022-07-10T09:37:29;23.70;53.40
27016;DHT22;14557;0.000;0.000;2022-07-10T09:40:03;23.80;53.40
27016;DHT22;14557;0.000;0.000;2022-07-10T09:45:21;23.80;53.30
27016;DHT22;14557;0.000;0.000;2022-07-10T09:47:59;23.90;53.30
27016;DHT22;14557;0.000;0.000;2022-07-10T09:50:35;23.90;53.30
27016;DHT22;14557;0.000;0.000;2022-07-10T09:53:06;23.90;53.20
27016;DHT22;14557;0.000;0.000;2022-07-10T09:55:36;23.90;53.30
27016;DHT22;14557;0.000;0.000;2022-07-10T09:58:03;24.00;53.20
27016;DHT22;14557;0.000;0.000;2022-07-10T10:00:29;24.00;53.20
27016;DHT22;14557;0.000;0.000;2022-07-10T10:02:59;24.00;53.10
27016;DHT22;14557;0.000;0.000;2022-07-10T10:05:39;24.00;53.10
27016;DHT22;14557;0.000;0.000;2022-07-10T10:08:56;24.00;53.00
27016;DHT22;14557;0.000;0.000;2022-07-10T10:11:01;24.10;53.00
27016;DHT22;14557;0.000;0.000;2022-07-10T10:13:28;24.10;52.90
27016;DHT22;14557;0.000;0.000;2022-07-10T10:15:56;24.20;52.90
27016;DHT22;14557;0.000;0.000;2022-07-10T10:18:26;24.20;52.80
27016;DHT22;14557;0.000;0.000;2022-07-10T10:20:53;24.20;52.70
27016;DHT22;14557;0.000;0.000;2022-07-10T10:23:22;24.20;52.80
27016;DHT22;14557;0.000;0.000;2022-07-10T10:25:53;24.30;52.70
27016;DHT22;14557;0.000;0.000;2022-07-10T10:28:23;24.30;52.70
27016;DHT22;14557;0.000;0.000;2022-07-10T10:30:51;24.30;52.70
27016;DHT22;14557;0.000;0.000;2022-07-10T10:35:58;24.40;52.70
27016;DHT22;14557;0.000;0.000;2022-07-10T10:38:24;24.40;52.60
27016;DHT22;14557;0.000;0.000;2022-07-10T10:40:50;24.30;52.50
27016;DHT22;14557;0.000;0.000;2022-07-10T10:43:23;24.40;52.50
27016;DHT22;14557;0.000;0.000;2022-07-10T10:45:52;24.40;52.50
27016;DHT22;14557;0.000;0.000;2022-07-10T10:48:18;24.40;52.40
27016;DHT22;14557;0.000;0.000;2022-07-10T10:50:47;24.50;52.40
27016;DHT22;14557;0.000;0.000;2022-07-10T10:53:28;24.50;52.40
27016;DHT22;14557;0.000;0.000;2022-07-10T10:58:43;24.50;52.40
27016;DHT22;14557;0.000;0.000;2022-07-10T11:06:49;24.60;52.30
27016;DHT22;14557;0.000;0.000;2022-07-10T11:12:04;24.70;52.30
27016;DHT22;14557;0.000;0.000;2022-07-10T11:14:35;24.70;52.30
27016;DHT22;14557;0.000;0.000;2022-07-10T11:17:02;24.70;52.20
27016;DHT22;14557;0.000;0.000;2022-07-10T11:19:29;24.70;52.10
27016;DHT22;14557;0.000;0.000;2022-07-10T11:24:51;24.80;52.10
27016;DHT22;14557;0.000;0.000;2022-07-10T11:30:13;24.90;52.00
27016;DHT22;14557;0.000;0.000;2022-07-10T11:32:38;24.90;51.90
27016;DHT22;14557;0.000;0.000;2022-07-10T11:35:14;24.90;51.80
27016;DHT22;14557;0.000;0.000;2022-07-10T11:37:52;25.00;51.80
27016;DHT22;14557;0.000;0.000;2022-07-10T11:40:18;25.00;51.70
27016;DHT22;14557;0.000;0.000;2022-07-10T11:42:53;25.00;51.70
27016;DHT22;14557;0.000;0.000;2022-07-10T11:45:30;25.00;51.70
27016;DHT22;14557;0.000;0.000;2022-07-10T11:47:57;25.00;51.60
27016;DHT22;14557;0.000;0.000;2022-07-10T11:50:24;25.10;51.60
27016;DHT22;14557;0.000;0.000;2022-07-10T11:52:50;25.10;51.60
27016;DHT22;14557;0.000;0.000;2022-07-10T11:55:18;25.10;51.50
27016;DHT22;14557;0.000;0.000;2022-07-10T11:57:44;25.10;51.40
27016;DHT22;14557;0.000;0.000;2022-07-10T12:00:40;25.10;51.30
27016;DHT22;14557;0.000;0.000;2022-07-10T12:03:21;25.10;51.20
27016;DHT22;14557;0.000;0.000;2022-07-10T12:05:48;25.20;51.20
27016;DHT22;14557;0.000;0.000;2022-07-10T12:08:17;25.20;51.10
27016;DHT22;14557;0.000;0.000;2022-07-10T12:10:43;25.20;51.10
27016;DHT22;14557;0.000;0.000;2022-07-10T12:13:11;25.20;51.00
27016;DHT22;14557;0.000;0.000;2022-07-10T12:15:39;25.30;51.10
27016;DHT22;14557;0.000;0.000;2022-07-10T12:18:07;25.30;51.10
27016;DHT22;14557;0.000;0.000;2022-07-10T12:20:34;25.30;51.00
27016;DHT22;14557;0.000;0.000;2022-07-10T12:23:00;25.30;51.00
27016;DHT22;14557;0.000;0.000;2022-07-10T12:25:26;25.30;51.00
27016;DHT22;14557;0.000;0.000;2022-07-10T12:27:57;25.30;51.00
27016;DHT22;14557;0.000;0.000;2022-07-10T12:30:35;25.30;51.00
27016;DHT22;14557;0.000;0.000;2022-07-10T12:33:15;25.30;51.00
27016;DHT22;14557;0.000;0.000;2022-07-10T12:35:50;25.30;51.00
27016;DHT22;14557;0.000;0.000;2022-07-10T12:40:48;25.40;51.10
27016;DHT22;14557;0.000;0.000;2022-07-10T12:43:29;25.40;51.10
27016;DHT22;14557;0.000;0.000;2022-07-10T12:48:41;25.40;51.00
27016;DHT22;14557;0.000;0.000;2022-07-10T12:51:26;25.40;51.00
27016;DHT22;14557;0.000;0.000;2022-07-10T12:53:54;25.40;51.00
27016;DHT22;14557;0.000;0.000;2022-07-10T12:56:48;25.40;51.00
27016;DHT22;14557;0.000;0.000;2022-07-10T12:59:21;25.40;51.00
27016;DHT22;14557;0.000;0.000;2022-07-10T13:01:47;25.40;50.90
27016;DHT22;14557;0.000;0.000;2022-07-10T13:04:13;25.40;50.90
27016;DHT22;14557;0.000;0.000;2022-07-10T13:06:39;25.50;50.70
27016;DHT22;14557;0.000;0.000;2022-07-10T13:09:32;25.50;50.70
27016;DHT22;14557;0.000;0.000;2022-07-10T13:11:57;25.50;50.50
27016;DHT22;14557;0.000;0.000;2022-07-10T13:14:24;25.50;50.30
27016;DHT22;14557;0.000;0.000;2022-07-10T13:16:50;25.50;50.40
27016;DHT22;14557;0.000;0.000;2022-07-10T13:19:16;25.50;50.20
27016;DHT22;14557;0.000;0.000;2022-07-10T13:21:41;25.50;50.20
27016;DHT22;14557;0.000;0.000;2022-07-10T13:24:07;25.50;50.00
27016;DHT22;14557;0.000;0.000;2022-07-10T13:26:33;25.60;49.90
27016;DHT22;14557;0.000;0.000;2022-07-10T13:28:59;25.60;50.00
27016;DHT22;14557;0.000;0.000;2022-07-10T13:31:25;25.60;49.90
27016;DHT22;14557;0.000;0.000;2022-07-10T13:33:51;25.60;49.90
27016;DHT22;14557;0.000;0.000;2022-07-10T13:36:17;25.60;49.90
27016;DHT22;14557;0.000;0.000;2022-07-10T13:38:43;25.60;49.90
27016;DHT22;14557;0.000;0.000;2022-07-10T13:41:09;25.60;49.90
27016;DHT22;14557;0.000;0.000;2022-07-10T13:43:35;25.60;49.80
27016;DHT22;14557;0.000;0.000;2022-07-10T13:46:01;25.60;49.90
27016;DHT22;14557;0.000;0.000;2022-07-10T13:48:28;25.60;50.00
27016;DHT22;14557;0.000;0.000;2022-07-10T13:50:54;25.60;49.90
27016;DHT22;14557;0.000;0.000;2022-07-10T13:53:20;25.60;49.80
27016;DHT22;14557;0.000;0.000;2022-07-10T13:55:47;25.60;49.70
27016;DHT22;14557;0.000;0.000;2022-07-10T13:58:14;25.60;49.80
27016;DHT22;14557;0.000;0.000;2022-07-10T14:00:40;25.60;49.80
27016;DHT22;14557;0.000;0.000;2022-07-10T14:03:06;25.60;49.90
27016;DHT22;14557;0.000;0.000;2022-07-10T14:05:33;25.60;50.00
27016;DHT22;14557;0.000;0.000;2022-07-10T14:07:59;25.60;50.00
27016;DHT22;14557;0.000;0.000;2022-07-10T14:10:26;25.60;50.00
27016;DHT22;14557;0.000;0.000;2022-07-10T14:12:55;25.60;50.00
27016;DHT22;14557;0.000;0.000;2022-07-10T14:15:21;25.60;50.10
27016;DHT22;14557;0.000;0.000;2022-07-10T14:17:47;25.60;50.10
27016;DHT22;14557;0.000;0.000;2022-07-10T14:20:13;25.60;50.20
27016;DHT22;14557;0.000;0.000;2022-07-10T14:22:39;25.60;50.20
27016;DHT22;14557;0.000;0.000;2022-07-10T14:25:05;25.60;50.20
27016;DHT22;14557;0.000;0.000;2022-07-10T14:27:31;25.70;50.80
27016;DHT22;14557;0.000;0.000;2022-07-10T14:29:58;25.70;50.20
27016;DHT22;14557;0.000;0.000;2022-07-10T14:32:24;25.70;50.30
27016;DHT22;14557;0.000;0.000;2022-07-10T14:34:50;25.70;50.20
27016;DHT22;14557;0.000;0.000;2022-07-10T14:37:16;25.70;50.30
27016;DHT22;14557;0.000;0.000;2022-07-10T14:39:42;25.70;50.30
27016;DHT22;14557;0.000;0.000;2022-07-10T14:42:08;25.70;50.20
27016;DHT22;14557;0.000;0.000;2022-07-10T14:44:35;25.70;50.20
27016;DHT22;14557;0.000;0.000;2022-07-10T14:47:01;25.80;51.00
27016;DHT22;14557;0.000;0.000;2022-07-10T14:49:27;25.80;50.30
27016;DHT22;14557;0.000;0.000;2022-07-10T14:51:53;25.70;50.20
27016;DHT22;14557;0.000;0.000;2022-07-10T14:54:20;25.80;50.20
27016;DHT22;14557;0.000;0.000;2022-07-10T14:56:46;25.80;50.30
27016;DHT22;14557;0.000;0.000;2022-07-10T14:59:11;25.80;50.30
27016;DHT22;14557;0.000;0.000;2022-07-10T15:01:37;25.80;50.30
27016;DHT22;14557;0.000;0.000;2022-07-10T15:04:03;25.80;50.30
27016;DHT22;14557;0.000;0.000;2022-07-10T15:06:29;25.80;50.30
27016;DHT22;14557;0.000;0.000;2022-07-10T15:08:55;25.80;50.30
27016;DHT22;14557;0.000;0.000;2022-07-10T15:11:21;25.80;50.30
27016;DHT22;14557;0.000;0.000;2022-07-10T15:13:49;25.80;50.40
27016;DHT22;14557;0.000;0.000;2022-07-10T15:16:17;25.80;50.40
27016;DHT22;14557;0.000;0.000;2022-07-10T15:18:42;25.80;50.50
27016;DHT22;14557;0.000;0.000;2022-07-10T15:21:08;25.80;50.40
27016;DHT22;14557;0.000;0.000;2022-07-10T15:23:34;25.80;50.50
27016;DHT22;14557;0.000;0.000;2022-07-10T15:26:00;25.80;50.30
27016;DHT22;14557;0.000;0.000;2022-07-10T15:28:26;25.80;50.20
27016;DHT22;14557;0.000;0.000;2022-07-10T15:30:52;25.90;50.30
27016;DHT22;14557;0.000;0.000;2022-07-10T15:33:18;25.90;50.30
27016;DHT22;14557;0.000;0.000;2022-07-10T15:35:43;25.90;50.30
27016;DHT22;14557;0.000;0.000;2022-07-10T15:38:09;25.90;50.20
27016;DHT22;14557;0.000;0.000;2022-07-10T15:40:35;26.00;50.20
27016;DHT22;14557;0.000;0.000;2022-07-10T15:43:01;26.00;50.20
27016;DHT22;14557;0.000;0.000;2022-07-10T15:45:27;26.00;50.20
27016;DHT22;14557;0.000;0.000;2022-07-10T15:47:53;26.10;50.30
27016;DHT22;14557;0.000;0.000;2022-07-10T15:50:19;26.10;50.30
27016;DHT22;14557;0.000;0.000;2022-07-10T15:52:45;26.10;50.20
27016;DHT22;14557;0.000;0.000;2022-07-10T15:55:12;26.10;50.20
27016;DHT22;14557;0.000;0.000;2022-07-10T15:57:38;26.10;50.20
27016;DHT22;14557;0.000;0.000;2022-07-10T16:00:06;26.10;50.10
27016;DHT22;14557;0.000;0.000;2022-07-10T16:02:32;26.20;50.10
27016;DHT22;14557;0.000;0.000;2022-07-10T16:04:58;26.20;50.10
27016;DHT22;14557;0.000;0.000;2022-07-10T16:07:24;26.20;50.20
27016;DHT22;14557;0.000;0.000;2022-07-10T16:09:50;26.20;50.20
27016;DHT22;14557;0.000;0.000;2022-07-10T16:12:16;26.20;50.20
27016;DHT22;14557;0.000;0.000;2022-07-10T16:14:41;26.30;50.20
27016;DHT22;14557;0.000;0.000;2022-07-10T16:17:07;26.30;50.20
27016;DHT22;14557;0.000;0.000;2022-07-10T16:19:33;26.30;50.30
27016;DHT22;14557;0.000;0.000;2022-07-10T16:21:59;26.30;50.20